sensor_id;sensor_type;location;lat;lon;timestamp;temperature;humidity
3330;DHT22;1677;49.576;10.990;2023-03-30T00:00:40;12.00;99.90
3330;DHT22;1677;49.576;10.990;2023-03-30T00:03:07;12.00;99.90
3330;DHT22;1677;49.576;10.990;2023-03-30T00:05:34;11.90;99.90
3330;DHT22;1677;49.576;10.990;2023-03-30T00:08:00;11.80;99.90
3330;DHT22;1677;49.576;10.990;2023-03-30T00:10:27;11.80;99.90
3330;DHT22;1677;49.576;10.990;2023-03-30T00:12:54;11.90;99.90
3330;DHT22;1677;49.576;10.990;2023-03-30T00:15:21;11.80;99.90
3330;DHT22;1677;49.576;10.990;2023-03-30T00:17:48;11.70;99.90
3330;DHT22;1677;49.576;10.990;2023-03-30T00:20:15;11.70;99.90
3330;DHT22;1677;49.576;10.990;2023-03-30T00:22:42;11.70;99.90
3330;DHT22;1677;49.576;10.990;2023-03-30T00:25:10;11.50;99.90
3330;DHT22;1677;49.576;10.990;2023-03-30T00:27:38;11.60;99.90
3330;DHT22;1677;49.576;10.990;2023-03-30T00:30:05;11.60;99.90
3330;DHT22;1677;49.576;10.990;2023-03-30T00:32:32;11.50;99.90
3330;DHT22;1677;49.576;10.990;2023-03-30T00:35:01;11.40;99.90
3330;DHT22;1677;49.576;10.990;2023-03-30T00:37:27;11.40;99.90
3330;DHT22;1677;49.576;10.990;2023-03-30T00:39:54;11.30;99.90
3330;DHT22;1677;49.576;10.990;2023-03-30T00:42:20;11.20;99.90
3330;DHT22;1677;49.576;10.990;2023-03-30T00:45:25;11.20;99.90
3330;DHT22;1677;49.576;10.990;2023-03-30T00:50:32;11.40;99.90
3330;DHT22;1677;49.576;10.990;2023-03-30T00:53:01;11.30;99.90
3330;DHT22;1677;49.576;10.990;2023-03-30T00:55:29;11.30;99.90
3330;DHT22;1677;49.576;10.990;2023-03-30T00:57:56;11.40;99.90
3330;DHT22;1677;49.576;10.990;2023-03-30T01:00:22;11.40;99.90
3330;DHT22;1677;49.576;10.990;2023-03-30T01:02:55;11.40;99.90
3330;DHT22;1677;49.576;10.990;2023-03-30T01:05:22;11.40;99.90
3330;DHT22;1677;49.576;10.990;2023-03-30T01:07:49;11.50;99.90
3330;DHT22;1677;49.576;10.990;2023-03-30T01:10:17;11.50;99.90
3330;DHT22;1677;49.576;10.990;2023-03-30T01:12:43;11.80;99.90
3330;DHT22;1677;49.576;10.990;2023-03-30T01:15:10;11.80;99.90
3330;DHT22;1677;49.576;10.990;2023-03-30T01:47:07;11.60;99.90
3330;DHT22;1677;49.576;10.990;2023-03-30T01:49:55;11.70;99.90
3330;DHT22;1677;49.576;10.990;2023-03-30T01:52:48;11.70;99.90
3330;DHT22;1677;49.576;10.990;2023-03-30T01:55:54;11.70;99.90
3330;DHT22;1677;49.576;10.990;2023-03-30T01:58:32;11.60;99.90
3330;DHT22;1677;49.576;10.990;2023-03-30T02:01:00;11.60;99.90
3330;DHT22;1677;49.576;10.990;2023-03-30T02:03:29;11.60;99.90
3330;DHT22;1677;49.576;10.990;2023-03-30T02:06:00;11.50;99.90
3330;DHT22;1677;49.576;10.990;2023-03-30T02:08:30;11.70;99.90
3330;DHT22;1677;49.576;10.990;2023-03-30T02:10:58;11.60;99.90
3330;DHT22;1677;49.576;10.990;2023-03-30T02:13:26;11.50;99.90
3330;DHT22;1677;49.576;10.990;2023-03-30T02:15:59;11.50;99.90
3330;DHT22;1677;49.576;10.990;2023-03-30T02:18:27;11.70;99.90
3330;DHT22;1677;49.576;10.990;2023-03-30T02:20:52;11.60;99.90
3330;DHT22;1677;49.576;10.990;2023-03-30T02:23:22;11.70;99.90
3330;DHT22;1677;49.576;10.990;2023-03-30T02:25:49;11.80;99.90
3330;DHT22;1677;49.576;10.990;2023-03-30T02:28:14;11.80;99.90
3330;DHT22;1677;49.576;10.990;2023-03-30T02:30:42;11.60;99.90
3330;DHT22;1677;49.576;10.990;2023-03-30T02:33:17;11.60;99.90
3330;DHT22;1677;49.576;10.990;2023-03-30T02:36:03;11.50;99.90
3330;DHT22;1677;49.576;10.990;2023-03-30T02:41:07;11.20;99.90
3330;DHT22;1677;49.576;10.990;2023-03-30T02:43:50;11.40;99.90
3330;DHT22;1677;49.576;10.990;2023-03-30T02:51:48;11.20;99.90
3330;DHT22;1677;49.576;10.990;2023-03-30T02:57:04;11.10;99.90
3330;DHT22;1677;49.576;10.990;2023-03-30T03:00:10;11.10;99.90
3330;DHT22;1677;49.576;10.990;2023-03-30T03:02:43;11.20;99.90
3330;DHT22;1677;49.576;10.990;2023-03-30T03:05:11;11.20;99.90
3330;DHT22;1677;49.576;10.990;2023-03-30T03:07:39;11.30;99.90
3330;DHT22;1677;49.576;10.990;2023-03-30T03:10:05;11.40;99.90
3330;DHT22;1677;49.576;10.990;2023-03-30T03:12:32;11.30;99.90
3330;DHT22;1677;49.576;10.990;2023-03-30T03:14:58;11.40;99.90
3330;DHT22;1677;49.576;10.990;2023-03-30T03:17:26;11.30;99.90
3330;DHT22;1677;49.576;10.990;2023-03-30T03:19:59;11.50;99.90
3330;DHT22;1677;49.576;10.990;2023-03-30T03:22:25;11.50;99.90
3330;DHT22;1677;49.576;10.990;2023-03-30T03:24:51;11.30;99.90
3330;DHT22;1677;49.576;10.990;2023-03-30T03:27:17;11.10;99.90
3330;DHT22;1677;49.576;10.990;2023-03-30T03:29:42;11.20;99.90
3330;DHT22;1677;49.576;10.990;2023-03-30T03:32:08;11.00;99.90
3330;DHT22;1677;49.576;10.990;2023-03-30T03:34:33;11.10;99.90
3330;DHT22;1677;49.576;10.990;2023-03-30T03:36:59;11.10;99.90
3330;DHT22;1677;49.576;10.990;2023-03-30T03:39:25;11.10;99.90
3330;DHT22;1677;49.576;10.990;2023-03-30T03:41:51;11.20;99.90
3330;DHT22;1677;49.576;10.990;2023-03-30T03:44:17;11.30;99.90
3330;DHT22;1677;49.576;10.990;2023-03-30T03:46:42;11.60;99.90
3330;DHT22;1677;49.576;10.990;2023-03-30T03:49:08;11.50;99.90
3330;DHT22;1677;49.576;10.990;2023-03-30T03:51:34;11.50;99.90
3330;DHT22;1677;49.576;10.990;2023-03-30T03:54:00;11.60;99.90
3330;DHT22;1677;49.576;10.990;2023-03-30T03:56:29;11.70;99.90
3330;DHT22;1677;49.576;10.990;2023-03-30T03:58:55;11.70;99.90
3330;DHT22;1677;49.576;10.990;2023-03-30T04:01:21;11.70;99.90
3330;DHT22;1677;49.576;10.990;2023-03-30T04:03:46;11.70;99.90
3330;DHT22;1677;49.576;10.990;2023-03-30T04:06:12;11.60;99.90
3330;DHT22;1677;49.576;10.990;2023-03-30T04:08:38;11.60;99.90
3330;DHT22;1677;49.576;10.990;2023-03-30T04:11:08;11.50;99.90
3330;DHT22;1677;49.576;10.990;2023-03-30T04:13:37;11.50;99.90
3330;DHT22;1677;49.576;10.990;2023-03-30T04:16:03;11.40;99.90
3330;DHT22;1677;49.576;10.990;2023-03-30T04:18:29;11.50;99.90
3330;DHT22;1677;49.576;10.990;2023-03-30T04:20:59;11.60;99.90
3330;DHT22;1677;49.576;10.990;2023-03-30T04:23:28;11.50;99.90
3330;DHT22;1677;49.576;10.990;2023-03-30T04:26:02;11.60;99.90
3330;DHT22;1677;49.576;10.990;2023-03-30T04:28:29;11.70;99.90
3330;DHT22;1677;49.576;10.990;2023-03-30T04:31:02;11.70;99.90
3330;DHT22;1677;49.576;10.990;2023-03-30T04:33:28;11.70;99.90
3330;DHT22;1677;49.576;10.990;2023-03-30T04:35:54;11.60;99.90
3330;DHT22;1677;49.576;10.990;2023-03-30T04:38:20;11.50;99.90
3330;DHT22;1677;49.576;10.990;2023-03-30T04:40:49;11.50;99.90
3330;DHT22;1677;49.576;10.990;2023-03-30T04:43:16;11.50;99.90
3330;DHT22;1677;49.576;10.990;2023-03-30T04:45:55;11.80;99.90
3330;DHT22;1677;49.576;10.990;2023-03-30T04:48:22;11.90;99.90
3330;DHT22;1677;49.576;10.990;2023-03-30T04:50:49;11.90;99.90
3330;DHT22;1677;49.576;10.990;2023-03-30T04:53:16;11.80;99.90
3330;DHT22;1677;49.576;10.990;2023-03-30T04:55:46;11.80;99.90
3330;DHT22;1677;49.576;10.990;2023-03-30T04:58:12;11.70;99.90
3330;DHT22;1677;49.576;10.990;2023-03-30T05:00:38;11.70;99.90
3330;DHT22;1677;49.576;10.990;2023-03-30T05:03:04;11.80;99.90
3330;DHT22;1677;49.576;10.990;2023-03-30T05:05:30;12.10;99.90
3330;DHT22;1677;49.576;10.990;2023-03-30T05:07:56;12.10;99.90
3330;DHT22;1677;49.576;10.990;2023-03-30T05:10:22;11.90;99.90
3330;DHT22;1677;49.576;10.990;2023-03-30T05:12:48;11.90;99.90
3330;DHT22;1677;49.576;10.990;2023-03-30T05:15:14;11.90;99.90
3330;DHT22;1677;49.576;10.990;2023-03-30T05:17:39;11.90;99.90
3330;DHT22;1677;49.576;10.990;2023-03-30T05:20:05;12.00;99.90
3330;DHT22;1677;49.576;10.990;2023-03-30T05:22:33;12.00;99.90
3330;DHT22;1677;49.576;10.990;2023-03-30T05:24:59;11.90;99.90
3330;DHT22;1677;49.576;10.990;2023-03-30T05:27:25;11.90;99.90
3330;DHT22;1677;49.576;10.990;2023-03-30T05:29:50;11.90;99.90
3330;DHT22;1677;49.576;10.990;2023-03-30T05:32:16;11.90;99.90
3330;DHT22;1677;49.576;10.990;2023-03-30T05:34:42;11.90;99.90
3330;DHT22;1677;49.576;10.990;2023-03-30T05:37:07;11.90;99.90
3330;DHT22;1677;49.576;10.990;2023-03-30T05:39:33;11.90;99.90
3330;DHT22;1677;49.576;10.990;2023-03-30T05:41:58;11.80;99.90
3330;DHT22;1677;49.576;10.990;2023-03-30T05:44:24;11.60;99.90
3330;DHT22;1677;49.576;10.990;2023-03-30T05:46:50;11.60;99.90
3330;DHT22;1677;49.576;10.990;2023-03-30T05:49:15;11.60;99.90
3330;DHT22;1677;49.576;10.990;2023-03-30T05:51:41;11.50;99.90
3330;DHT22;1677;49.576;10.990;2023-03-30T05:54:10;11.50;99.90
3330;DHT22;1677;49.576;10.990;2023-03-30T05:56:36;11.50;99.90
3330;DHT22;1677;49.576;10.990;2023-03-30T05:59:01;11.50;99.90
3330;DHT22;1677;49.576;10.990;2023-03-30T06:01:29;11.70;99.90
3330;DHT22;1677;49.576;10.990;2023-03-30T06:03:55;11.90;99.90
3330;DHT22;1677;49.576;10.990;2023-03-30T06:06:21;12.00;99.90
3330;DHT22;1677;49.576;10.990;2023-03-30T06:08:47;12.10;99.90
3330;DHT22;1677;49.576;10.990;2023-03-30T06:11:14;12.10;99.90
3330;DHT22;1677;49.576;10.990;2023-03-30T06:13:40;12.10;99.90
3330;DHT22;1677;49.576;10.990;2023-03-30T06:16:06;12.10;99.90
3330;DHT22;1677;49.576;10.990;2023-03-30T06:18:32;12.10;99.90
3330;DHT22;1677;49.576;10.990;2023-03-30T06:20:58;12.00;99.90
3330;DHT22;1677;49.576;10.990;2023-03-30T06:23:27;12.10;99.90
3330;DHT22;1677;49.576;10.990;2023-03-30T06:25:52;12.10;99.90
3330;DHT22;1677;49.576;10.990;2023-03-30T06:28:20;12.20;99.90
3330;DHT22;1677;49.576;10.990;2023-03-30T06:30:46;12.30;99.90
3330;DHT22;1677;49.576;10.990;2023-03-30T06:33:14;12.20;99.90
3330;DHT22;1677;49.576;10.990;2023-03-30T06:35:48;12.30;99.90
3330;DHT22;1677;49.576;10.990;2023-03-30T06:38:15;12.40;99.90
3330;DHT22;1677;49.576;10.990;2023-03-30T06:40:41;12.50;99.90
3330;DHT22;1677;49.576;10.990;2023-03-30T06:43:11;12.50;99.90
3330;DHT22;1677;49.576;10.990;2023-03-30T06:45:38;12.50;99.90
3330;DHT22;1677;49.576;10.990;2023-03-30T06:48:03;12.60;99.90
3330;DHT22;1677;49.576;10.990;2023-03-30T06:50:29;12.70;99.90
3330;DHT22;1677;49.576;10.990;2023-03-30T06:52:55;12.70;99.90
3330;DHT22;1677;49.576;10.990;2023-03-30T06:55:21;12.70;99.90
3330;DHT22;1677;49.576;10.990;2023-03-30T06:57:46;12.70;99.90
3330;DHT22;1677;49.576;10.990;2023-03-30T07:00:12;12.70;99.90
3330;DHT22;1677;49.576;10.990;2023-03-30T07:02:43;12.70;99.90
3330;DHT22;1677;49.576;10.990;2023-03-30T07:05:09;12.80;99.90
3330;DHT22;1677;49.576;10.990;2023-03-30T07:07:35;12.80;99.90
3330;DHT22;1677;49.576;10.990;2023-03-30T07:10:02;12.80;99.90
3330;DHT22;1677;49.576;10.990;2023-03-30T07:12:35;12.70;99.90
3330;DHT22;1677;49.576;10.990;2023-03-30T07:15:00;12.60;99.90
3330;DHT22;1677;49.576;10.990;2023-03-30T07:17:26;12.60;99.90
3330;DHT22;1677;49.576;10.990;2023-03-30T07:20:27;12.60;99.90
3330;DHT22;1677;49.576;10.990;2023-03-30T07:22:52;12.70;99.90
3330;DHT22;1677;49.576;10.990;2023-03-30T07:25:18;12.70;99.90
3330;DHT22;1677;49.576;10.990;2023-03-30T07:27:43;12.60;99.90
3330;DHT22;1677;49.576;10.990;2023-03-30T07:30:10;12.50;99.90
3330;DHT22;1677;49.576;10.990;2023-03-30T07:32:36;12.30;99.90
3330;DHT22;1677;49.576;10.990;2023-03-30T07:35:02;12.30;99.90
3330;DHT22;1677;49.576;10.990;2023-03-30T07:37:28;12.30;99.90
3330;DHT22;1677;49.576;10.990;2023-03-30T07:39:54;12.30;99.90
3330;DHT22;1677;49.576;10.990;2023-03-30T07:42:21;12.30;99.90
3330;DHT22;1677;49.576;10.990;2023-03-30T07:44:47;12.20;99.90
3330;DHT22;1677;49.576;10.990;2023-03-30T07:47:12;12.20;99.90
3330;DHT22;1677;49.576;10.990;2023-03-30T07:49:38;12.20;99.90
3330;DHT22;1677;49.576;10.990;2023-03-30T07:52:03;12.30;99.90
3330;DHT22;1677;49.576;10.990;2023-03-30T07:54:29;12.20;99.90
3330;DHT22;1677;49.576;10.990;2023-03-30T07:56:55;12.20;99.90
3330;DHT22;1677;49.576;10.990;2023-03-30T07:59:22;12.20;99.90
3330;DHT22;1677;49.576;10.990;2023-03-30T08:01:48;12.10;99.90
3330;DHT22;1677;49.576;10.990;2023-03-30T08:04:19;12.20;99.90
3330;DHT22;1677;49.576;10.990;2023-03-30T08:06:45;12.20;99.90
3330;DHT22;1677;49.576;10.990;2023-03-30T08:09:11;12.20;99.90
3330;DHT22;1677;49.576;10.990;2023-03-30T08:11:37;12.20;99.90
3330;DHT22;1677;49.576;10.990;2023-03-30T08:14:03;12.20;99.90
3330;DHT22;1677;49.576;10.990;2023-03-30T08:16:29;12.20;99.90
3330;DHT22;1677;49.576;10.990;2023-03-30T08:18:55;12.40;99.90
3330;DHT22;1677;49.576;10.990;2023-03-30T08:21:21;12.40;99.90
3330;DHT22;1677;49.576;10.990;2023-03-30T08:23:49;12.40;99.90
3330;DHT22;1677;49.576;10.990;2023-03-30T08:26:15;12.40;99.90
3330;DHT22;1677;49.576;10.990;2023-03-30T08:28:41;12.40;99.90
3330;DHT22;1677;49.576;10.990;2023-03-30T08:31:07;12.30;99.90
3330;DHT22;1677;49.576;10.990;2023-03-30T08:33:35;12.40;99.90
3330;DHT22;1677;49.576;10.990;2023-03-30T08:36:01;12.40;99.90
3330;DHT22;1677;49.576;10.990;2023-03-30T08:38:27;12.50;99.90
3330;DHT22;1677;49.576;10.990;2023-03-30T08:40:53;12.60;99.90
3330;DHT22;1677;49.576;10.990;2023-03-30T08:45:45;12.60;99.90
3330;DHT22;1677;49.576;10.990;2023-03-30T08:48:21;12.60;99.90
3330;DHT22;1677;49.576;10.990;2023-03-30T08:53:37;12.60;99.90
3330;DHT22;1677;49.576;10.990;2023-03-30T08:56:15;12.60;99.90
3330;DHT22;1677;49.576;10.990;2023-03-30T08:58:54;12.70;99.90
3330;DHT22;1677;49.576;10.990;2023-03-30T09:04:43;12.70;99.90
3330;DHT22;1677;49.576;10.990;2023-03-30T09:07:21;12.70;99.90
3330;DHT22;1677;49.576;10.990;2023-03-30T09:09:48;12.60;99.90
3330;DHT22;1677;49.576;10.990;2023-03-30T09:13:01;12.60;99.90
3330;DHT22;1677;49.576;10.990;2023-03-30T09:17:39;12.80;99.90
3330;DHT22;1677;49.576;10.990;2023-03-30T09:20:23;12.90;99.90
3330;DHT22;1677;49.576;10.990;2023-03-30T09:22:52;13.00;99.90
3330;DHT22;1677;49.576;10.990;2023-03-30T09:25:30;13.00;99.90
3330;DHT22;1677;49.576;10.990;2023-03-30T09:28:23;13.00;99.90
3330;DHT22;1677;49.576;10.990;2023-03-30T09:30:55;13.10;99.90
3330;DHT22;1677;49.576;10.990;2023-03-30T09:33:29;13.10;99.90
3330;DHT22;1677;49.576;10.990;2023-03-30T09:38:32;13.10;99.90
3330;DHT22;1677;49.576;10.990;2023-03-30T09:43:33;12.50;99.90
3330;DHT22;1677;49.576;10.990;2023-03-30T09:46:05;12.50;99.90
3330;DHT22;1677;49.576;10.990;2023-03-30T09:48:45;12.40;99.90
3330;DHT22;1677;49.576;10.990;2023-03-30T09:53:44;12.40;99.90
3330;DHT22;1677;49.576;10.990;2023-03-30T09:56:19;12.60;99.90
3330;DHT22;1677;49.576;10.990;2023-03-30T09:58:45;12.70;99.90
3330;DHT22;1677;49.576;10.990;2023-03-30T10:01:13;12.70;99.90
3330;DHT22;1677;49.576;10.990;2023-03-30T10:03:40;12.90;99.90
3330;DHT22;1677;49.576;10.990;2023-03-30T10:06:11;13.00;99.90
3330;DHT22;1677;49.576;10.990;2023-03-30T10:08:51;13.10;99.90
3330;DHT22;1677;49.576;10.990;2023-03-30T10:11:29;13.10;99.90
3330;DHT22;1677;49.576;10.990;2023-03-30T10:13:58;13.10;99.90
3330;DHT22;1677;49.576;10.990;2023-03-30T10:16:29;13.10;99.90
3330;DHT22;1677;49.576;10.990;2023-03-30T10:19:00;13.10;99.90
3330;DHT22;1677;49.576;10.990;2023-03-30T10:21:45;13.20;99.90
3330;DHT22;1677;49.576;10.990;2023-03-30T10:26:43;13.20;99.90
3330;DHT22;1677;49.576;10.990;2023-03-30T10:29:12;13.30;99.90
3330;DHT22;1677;49.576;10.990;2023-03-30T10:31:42;13.50;99.90
3330;DHT22;1677;49.576;10.990;2023-03-30T10:34:22;13.40;99.90
3330;DHT22;1677;49.576;10.990;2023-03-30T10:36:50;13.10;99.90
3330;DHT22;1677;49.576;10.990;2023-03-30T10:39:22;13.00;99.90
3330;DHT22;1677;49.576;10.990;2023-03-30T10:41:49;13.30;99.90
3330;DHT22;1677;49.576;10.990;2023-03-30T10:44:25;13.30;99.90
3330;DHT22;1677;49.576;10.990;2023-03-30T10:47:08;13.30;99.90
3330;DHT22;1677;49.576;10.990;2023-03-30T11:03:16;13.70;99.90
3330;DHT22;1677;49.576;10.990;2023-03-30T11:05:45;14.30;99.90
3330;DHT22;1677;49.576;10.990;2023-03-30T11:08:28;15.40;99.90
3330;DHT22;1677;49.576;10.990;2023-03-30T11:10:57;15.80;99.90
3330;DHT22;1677;49.576;10.990;2023-03-30T11:13:32;15.80;99.90
3330;DHT22;1677;49.576;10.990;2023-03-30T11:19:06;15.50;99.90
3330;DHT22;1677;49.576;10.990;2023-03-30T11:21:41;15.10;99.90
3330;DHT22;1677;49.576;10.990;2023-03-30T11:24:18;14.80;99.90
3330;DHT22;1677;49.576;10.990;2023-03-30T11:26:50;14.70;99.90
3330;DHT22;1677;49.576;10.990;2023-03-30T11:32:08;14.50;99.90
3330;DHT22;1677;49.576;10.990;2023-03-30T11:35:00;14.60;99.90
3330;DHT22;1677;49.576;10.990;2023-03-30T11:37:31;14.80;99.90
3330;DHT22;1677;49.576;10.990;2023-03-30T11:42:36;15.20;99.90
3330;DHT22;1677;49.576;10.990;2023-03-30T11:45:16;15.70;99.90
3330;DHT22;1677;49.576;10.990;2023-03-30T11:47:48;15.90;99.90
3330;DHT22;1677;49.576;10.990;2023-03-30T11:53:26;15.70;99.90
3330;DHT22;1677;49.576;10.990;2023-03-30T11:59:03;15.90;99.90
3330;DHT22;1677;49.576;10.990;2023-03-30T12:02:00;15.90;99.90
3330;DHT22;1677;49.576;10.990;2023-03-30T12:05:24;15.80;99.90
3330;DHT22;1677;49.576;10.990;2023-03-30T12:09:58;15.90;99.90
3330;DHT22;1677;49.576;10.990;2023-03-30T12:12:32;16.00;99.90
3330;DHT22;1677;49.576;10.990;2023-03-30T12:15:11;16.10;99.90
3330;DHT22;1677;49.576;10.990;2023-03-30T12:17:57;15.90;99.90
3330;DHT22;1677;49.576;10.990;2023-03-30T12:20:45;16.10;99.90
3330;DHT22;1677;49.576;10.990;2023-03-30T12:23:21;17.30;99.90
3330;DHT22;1677;49.576;10.990;2023-03-30T12:26:07;18.60;99.90
3330;DHT22;1677;49.576;10.990;2023-03-30T12:28:54;18.80;99.90
3330;DHT22;1677;49.576;10.990;2023-03-30T12:34:22;18.80;99.90
3330;DHT22;1677;49.576;10.990;2023-03-30T12:37:10;19.00;99.90
3330;DHT22;1677;49.576;10.990;2023-03-30T12:39:43;19.10;99.90
3330;DHT22;1677;49.576;10.990;2023-03-30T12:50:22;18.40;99.90
3330;DHT22;1677;49.576;10.990;2023-03-30T13:01:35;17.20;99.90
3330;DHT22;1677;49.576;10.990;2023-03-30T13:04:14;17.20;99.90
3330;DHT22;1677;49.576;10.990;2023-03-30T13:07:01;17.10;99.90
3330;DHT22;1677;49.576;10.990;2023-03-30T13:09:34;17.00;99.90
3330;DHT22;1677;49.576;10.990;2023-03-30T13:12:31;16.90;99.90
3330;DHT22;1677;49.576;10.990;2023-03-30T13:15:03;16.80;99.90
3330;DHT22;1677;49.576;10.990;2023-03-30T13:17:58;16.60;99.90
3330;DHT22;1677;49.576;10.990;2023-03-30T13:23:24;16.60;99.90
3330;DHT22;1677;49.576;10.990;2023-03-30T13:26:26;16.50;99.90
3330;DHT22;1677;49.576;10.990;2023-03-30T13:29:03;16.60;99.90
3330;DHT22;1677;49.576;10.990;2023-03-30T13:32:06;16.60;99.90
3330;DHT22;1677;49.576;10.990;2023-03-30T13:40:25;17.10;99.90
3330;DHT22;1677;49.576;10.990;2023-03-30T13:48:50;19.00;99.90
3330;DHT22;1677;49.576;10.990;2023-03-30T13:51:21;18.90;99.90
3330;DHT22;1677;49.576;10.990;2023-03-30T13:53:51;18.60;99.90
3330;DHT22;1677;49.576;10.990;2023-03-30T13:56:18;18.30;99.90
3330;DHT22;1677;49.576;10.990;2023-03-30T13:59:06;18.30;99.90
3330;DHT22;1677;49.576;10.990;2023-03-30T14:01:34;18.20;99.90
3330;DHT22;1677;49.576;10.990;2023-03-30T14:04:01;17.80;99.90
3330;DHT22;1677;49.576;10.990;2023-03-30T14:06:32;17.80;99.90
3330;DHT22;1677;49.576;10.990;2023-03-30T14:11:36;18.20;99.90
3330;DHT22;1677;49.576;10.990;2023-03-30T14:14:03;18.10;99.90
3330;DHT22;1677;49.576;10.990;2023-03-30T14:16:37;17.60;99.90
3330;DHT22;1677;49.576;10.990;2023-03-30T14:19:22;17.60;99.90
3330;DHT22;1677;49.576;10.990;2023-03-30T14:21:49;17.70;99.90
3330;DHT22;1677;49.576;10.990;2023-03-30T14:24:19;17.70;99.90
3330;DHT22;1677;49.576;10.990;2023-03-30T14:26:50;17.80;99.90
3330;DHT22;1677;49.576;10.990;2023-03-30T14:29:18;18.20;99.90
3330;DHT22;1677;49.576;10.990;2023-03-30T14:31:45;18.40;99.90
3330;DHT22;1677;49.576;10.990;2023-03-30T14:34:30;18.40;99.90
3330;DHT22;1677;49.576;10.990;2023-03-30T14:37:02;18.40;99.90
3330;DHT22;1677;49.576;10.990;2023-03-30T14:39:30;18.20;99.90
3330;DHT22;1677;49.576;10.990;2023-03-30T14:42:00;18.30;99.90
3330;DHT22;1677;49.576;10.990;2023-03-30T14:44:37;18.30;99.90
3330;DHT22;1677;49.576;10.990;2023-03-30T14:47:04;18.10;99.90
3330;DHT22;1677;49.576;10.990;2023-03-30T14:49:30;18.00;99.90
3330;DHT22;1677;49.576;10.990;2023-03-30T14:52:16;17.70;99.90
3330;DHT22;1677;49.576;10.990;2023-03-30T14:54:43;17.40;99.90
3330;DHT22;1677;49.576;10.990;2023-03-30T14:57:11;17.20;99.90
3330;DHT22;1677;49.576;10.990;2023-03-30T14:59:56;17.30;99.90
3330;DHT22;1677;49.576;10.990;2023-03-30T15:02:25;17.20;99.90
3330;DHT22;1677;49.576;10.990;2023-03-30T15:04:52;17.10;99.90
3330;DHT22;1677;49.576;10.990;2023-03-30T15:07:18;16.90;99.90
3330;DHT22;1677;49.576;10.990;2023-03-30T15:09:46;16.70;99.90
3330;DHT22;1677;49.576;10.990;2023-03-30T15:12:28;16.60;99.90
3330;DHT22;1677;49.576;10.990;2023-03-30T15:14:59;16.60;99.90
3330;DHT22;1677;49.576;10.990;2023-03-30T15:17:26;16.50;99.90
3330;DHT22;1677;49.576;10.990;2023-03-30T15:19:54;16.30;99.90
3330;DHT22;1677;49.576;10.990;2023-03-30T15:22:33;16.20;99.90
3330;DHT22;1677;49.576;10.990;2023-03-30T15:25:03;16.20;99.90
3330;DHT22;1677;49.576;10.990;2023-03-30T15:27:32;16.20;99.90
3330;DHT22;1677;49.576;10.990;2023-03-30T15:29:58;16.20;99.90
3330;DHT22;1677;49.576;10.990;2023-03-30T15:32:33;16.40;99.90
3330;DHT22;1677;49.576;10.990;2023-03-30T15:35:19;16.80;99.90
3330;DHT22;1677;49.576;10.990;2023-03-30T15:37:58;17.20;99.90
3330;DHT22;1677;49.576;10.990;2023-03-30T15:40:37;17.40;99.90
3330;DHT22;1677;49.576;10.990;2023-03-30T15:43:27;17.60;99.90
3330;DHT22;1677;49.576;10.990;2023-03-30T15:46:09;17.60;99.90
3330;DHT22;1677;49.576;10.990;2023-03-30T15:48:48;17.60;99.90
3330;DHT22;1677;49.576;10.990;2023-03-30T15:51:25;17.60;99.90
3330;DHT22;1677;49.576;10.990;2023-03-30T15:53:58;17.40;99.90
3330;DHT22;1677;49.576;10.990;2023-03-30T15:56:45;17.40;99.90
3330;DHT22;1677;49.576;10.990;2023-03-30T15:59:19;17.20;99.90
3330;DHT22;1677;49.576;10.990;2023-03-30T16:04:16;17.10;99.90
3330;DHT22;1677;49.576;10.990;2023-03-30T16:06:42;17.00;99.90
3330;DHT22;1677;49.576;10.990;2023-03-30T16:09:08;16.90;99.90
3330;DHT22;1677;49.576;10.990;2023-03-30T16:11:35;16.80;99.90
3330;DHT22;1677;49.576;10.990;2023-03-30T16:14:03;16.80;99.90
3330;DHT22;1677;49.576;10.990;2023-03-30T16:16:30;16.70;99.90
3330;DHT22;1677;49.576;10.990;2023-03-30T16:18:55;16.60;99.90
3330;DHT22;1677;49.576;10.990;2023-03-30T16:21:21;16.60;99.90
3330;DHT22;1677;49.576;10.990;2023-03-30T16:23:52;16.60;99.90
3330;DHT22;1677;49.576;10.990;2023-03-30T16:26:18;16.40;99.90
3330;DHT22;1677;49.576;10.990;2023-03-30T16:28:43;16.30;99.90
3330;DHT22;1677;49.576;10.990;2023-03-30T16:31:18;16.20;99.90
3330;DHT22;1677;49.576;10.990;2023-03-30T16:33:45;16.30;99.90
3330;DHT22;1677;49.576;10.990;2023-03-30T16:36:13;16.20;99.90
3330;DHT22;1677;49.576;10.990;2023-03-30T16:38:39;16.10;99.90
3330;DHT22;1677;49.576;10.990;2023-03-30T16:41:05;15.90;99.90
3330;DHT22;1677;49.576;10.990;2023-03-30T16:43:34;15.70;99.90
3330;DHT22;1677;49.576;10.990;2023-03-30T16:45:59;15.70;99.90
3330;DHT22;1677;49.576;10.990;2023-03-30T16:48:25;15.50;99.90
3330;DHT22;1677;49.576;10.990;2023-03-30T16:50:52;15.40;99.90
3330;DHT22;1677;49.576;10.990;2023-03-30T16:53:19;15.30;99.90
3330;DHT22;1677;49.576;10.990;2023-03-30T16:55:45;15.30;99.90
3330;DHT22;1677;49.576;10.990;2023-03-30T16:58:12;15.30;99.90
3330;DHT22;1677;49.576;10.990;2023-03-30T17:00:42;15.30;99.90
3330;DHT22;1677;49.576;10.990;2023-03-30T17:03:08;15.40;99.90
3330;DHT22;1677;49.576;10.990;2023-03-30T17:05:34;15.20;99.90
3330;DHT22;1677;49.576;10.990;2023-03-30T17:08:20;15.20;99.90
3330;DHT22;1677;49.576;10.990;2023-03-30T17:10:47;15.20;99.90
3330;DHT22;1677;49.576;10.990;2023-03-30T17:13:12;15.30;99.90
3330;DHT22;1677;49.576;10.990;2023-03-30T17:15:38;14.70;99.90
3330;DHT22;1677;49.576;10.990;2023-03-30T17:18:05;14.20;99.90
3330;DHT22;1677;49.576;10.990;2023-03-30T17:20:36;13.80;99.90
3330;DHT22;1677;49.576;10.990;2023-03-30T17:23:02;13.50;99.90
3330;DHT22;1677;49.576;10.990;2023-03-30T17:25:28;13.40;99.90
3330;DHT22;1677;49.576;10.990;2023-03-30T17:27:54;13.30;99.90
3330;DHT22;1677;49.576;10.990;2023-03-30T17:30:25;13.10;99.90
3330;DHT22;1677;49.576;10.990;2023-03-30T17:32:54;13.10;99.90
3330;DHT22;1677;49.576;10.990;2023-03-30T17:35:22;12.90;99.90
3330;DHT22;1677;49.576;10.990;2023-03-30T17:37:48;12.90;99.90
3330;DHT22;1677;49.576;10.990;2023-03-30T17:42:47;12.80;99.90
3330;DHT22;1677;49.576;10.990;2023-03-30T17:45:15;12.60;99.90
3330;DHT22;1677;49.576;10.990;2023-03-30T17:47:42;12.50;99.90
3330;DHT22;1677;49.576;10.990;2023-03-30T17:50:29;12.40;99.90
3330;DHT22;1677;49.576;10.990;2023-03-30T17:52:55;12.30;99.90
3330;DHT22;1677;49.576;10.990;2023-03-30T17:55:25;12.30;99.90
3330;DHT22;1677;49.576;10.990;2023-03-30T17:57:51;12.40;99.90
3330;DHT22;1677;49.576;10.990;2023-03-30T18:02:46;12.10;99.90
3330;DHT22;1677;49.576;10.990;2023-03-30T18:05:13;12.00;99.90
3330;DHT22;1677;49.576;10.990;2023-03-30T18:07:39;11.90;99.90
3330;DHT22;1677;49.576;10.990;2023-03-30T18:10:34;11.90;99.90
3330;DHT22;1677;49.576;10.990;2023-03-30T18:13:01;11.80;99.90
3330;DHT22;1677;49.576;10.990;2023-03-30T18:15:28;11.70;99.90
3330;DHT22;1677;49.576;10.990;2023-03-30T18:17:55;11.50;99.90
3330;DHT22;1677;49.576;10.990;2023-03-30T18:20:27;11.60;99.90
3330;DHT22;1677;49.576;10.990;2023-03-30T18:22:53;11.70;99.90
3330;DHT22;1677;49.576;10.990;2023-03-30T18:25:19;11.80;99.90